sensor_id;sensor_type;location;lat;lon;timestamp;P1;durP1;ratioP1;P2;durP2;ratioP2
36001;SDS011;22070;50.922;5.430;2023-12-20T00:00:25;0.00;;;0.00;;
36001;SDS011;22070;50.922;5.430;2023-12-20T00:02:51;0.08;;;0.05;;
36001;SDS011;22070;50.922;5.430;2023-12-20T00:05:16;53.17;;;1.20;;
36001;SDS011;22070;50.922;5.430;2023-12-20T00:07:42;0.00;;;0.00;;
36001;SDS011;22070;50.922;5.430;2023-12-20T00:10:08;4.80;;;1.55;;
36001;SDS011;22070;50.922;5.430;2023-12-20T00:12:34;0.65;;;0.65;;
36001;SDS011;22070;50.922;5.430;2023-12-20T00:15:00;0.00;;;0.00;;
36001;SDS011;22070;50.922;5.430;2023-12-20T00:17:25;0.43;;;0.20;;
36001;SDS011;22070;50.922;5.430;2023-12-20T00:19:51;0.00;;;0.00;;
36001;SDS011;22070;50.922;5.430;2023-12-20T00:22:17;0.67;;;0.67;;
36001;SDS011;22070;50.922;5.430;2023-12-20T00:24:42;0.00;;;0.00;;
36001;SDS011;22070;50.922;5.430;2023-12-20T00:27:08;0.00;;;0.00;;
36001;SDS011;22070;50.922;5.430;2023-12-20T00:29:33;0.10;;;0.10;;
36001;SDS011;22070;50.922;5.430;2023-12-20T00:31:59;0.00;;;0.00;;
36001;SDS011;22070;50.922;5.430;2023-12-20T00:34:25;0.00;;;0.00;;
36001;SDS011;22070;50.922;5.430;2023-12-20T00:36:50;0.00;;;0.00;;
36001;SDS011;22070;50.922;5.430;2023-12-20T00:39:16;0.08;;;0.08;;
36001;SDS011;22070;50.922;5.430;2023-12-20T00:41:42;0.00;;;0.00;;
36001;SDS011;22070;50.922;5.430;2023-12-20T00:44:07;0.17;;;0.17;;
36001;SDS011;22070;50.922;5.430;2023-12-20T00:46:33;0.00;;;0.00;;
36001;SDS011;22070;50.922;5.430;2023-12-20T00:48:59;0.00;;;0.00;;
36001;SDS011;22070;50.922;5.430;2023-12-20T00:51:24;0.00;;;0.00;;
36001;SDS011;22070;50.922;5.430;2023-12-20T00:53:50;0.00;;;0.00;;
36001;SDS011;22070;50.922;5.430;2023-12-20T00:56:19;0.80;;;0.80;;
36001;SDS011;22070;50.922;5.430;2023-12-20T00:58:45;0.00;;;0.00;;
36001;SDS011;22070;50.922;5.430;2023-12-20T01:01:11;0.00;;;0.00;;
36001;SDS011;22070;50.922;5.430;2023-12-20T01:03:36;2.08;;;1.10;;
36001;SDS011;22070;50.922;5.430;2023-12-20T01:06:02;0.00;;;0.00;;
36001;SDS011;22070;50.922;5.430;2023-12-20T01:08:29;1.08;;;1.02;;
36001;SDS011;22070;50.922;5.430;2023-12-20T01:10:55;0.00;;;0.00;;
36001;SDS011;22070;50.922;5.430;2023-12-20T01:13:21;0.00;;;0.00;;
36001;SDS011;22070;50.922;5.430;2023-12-20T01:15:46;0.00;;;0.00;;
36001;SDS011;22070;50.922;5.430;2023-12-20T01:18:13;0.00;;;0.00;;
36001;SDS011;22070;50.922;5.430;2023-12-20T01:20:39;0.00;;;0.00;;
36001;SDS011;22070;50.922;5.430;2023-12-20T01:23:04;1.13;;;0.77;;
36001;SDS011;22070;50.922;5.430;2023-12-20T01:25:30;0.00;;;0.00;;
36001;SDS011;22070;50.922;5.430;2023-12-20T01:27:55;1.73;;;0.90;;
36001;SDS011;22070;50.922;5.430;2023-12-20T01:30:21;0.00;;;0.00;;
36001;SDS011;22070;50.922;5.430;2023-12-20T01:32:47;2.57;;;1.40;;
36001;SDS011;22070;50.922;5.430;2023-12-20T01:35:12;0.00;;;0.00;;
36001;SDS011;22070;50.922;5.430;2023-12-20T01:37:38;0.00;;;0.00;;
36001;SDS011;22070;50.922;5.430;2023-12-20T01:40:04;0.00;;;0.00;;
36001;SDS011;22070;50.922;5.430;2023-12-20T01:42:30;1.10;;;1.10;;
36001;SDS011;22070;50.922;5.430;2023-12-20T01:44:55;0.00;;;0.00;;
36001;SDS011;22070;50.922;5.430;2023-12-20T01:47:21;0.10;;;0.10;;
36001;SDS011;22070;50.922;5.430;2023-12-20T01:49:47;0.00;;;0.00;;
36001;SDS011;22070;50.922;5.430;2023-12-20T01:52:14;0.00;;;0.00;;
36001;SDS011;22070;50.922;5.430;2023-12-20T01:54:40;0.00;;;0.00;;
36001;SDS011;22070;50.922;5.430;2023-12-20T01:57:07;0.70;;;0.70;;
36001;SDS011;22070;50.922;5.430;2023-12-20T01:59:34;0.30;;;0.30;;
36001;SDS011;22070;50.922;5.430;2023-12-20T02:02:00;0.22;;;0.22;;
36001;SDS011;22070;50.922;5.430;2023-12-20T02:04:26;0.00;;;0.00;;
36001;SDS011;22070;50.922;5.430;2023-12-20T02:06:52;0.00;;;0.00;;
36001;SDS011;22070;50.922;5.430;2023-12-20T02:09:18;0.00;;;0.00;;
36001;SDS011;22070;50.922;5.430;2023-12-20T02:11:44;0.07;;;0.07;;
36001;SDS011;22070;50.922;5.430;2023-12-20T02:14:10;0.00;;;0.00;;
36001;SDS011;22070;50.922;5.430;2023-12-20T02:16:35;0.00;;;0.00;;
36001;SDS011;22070;50.922;5.430;2023-12-20T02:19:02;0.00;;;0.00;;
36001;SDS011;22070;50.922;5.430;2023-12-20T02:21:32;0.00;;;0.00;;
36001;SDS011;22070;50.922;5.430;2023-12-20T02:24:01;0.00;;;0.00;;
36001;SDS011;22070;50.922;5.430;2023-12-20T02:26:26;0.00;;;0.00;;
36001;SDS011;22070;50.922;5.430;2023-12-20T02:28:52;0.00;;;0.00;;
36001;SDS011;22070;50.922;5.430;2023-12-20T02:31:20;0.00;;;0.00;;
36001;SDS011;22070;50.922;5.430;2023-12-20T02:33:47;0.25;;;0.25;;
36001;SDS011;22070;50.922;5.430;2023-12-20T02:36:13;0.00;;;0.00;;
36001;SDS011;22070;50.922;5.430;2023-12-20T02:38:38;0.00;;;0.00;;
36001;SDS011;22070;50.922;5.430;2023-12-20T02:41:04;0.00;;;0.00;;
36001;SDS011;22070;50.922;5.430;2023-12-20T02:43:30;0.00;;;0.00;;
36001;SDS011;22070;50.922;5.430;2023-12-20T02:45:55;0.00;;;0.00;;
36001;SDS011;22070;50.922;5.430;2023-12-20T02:48:21;0.10;;;0.10;;
36001;SDS011;22070;50.922;5.430;2023-12-20T02:50:47;0.00;;;0.00;;
36001;SDS011;22070;50.922;5.430;2023-12-20T02:53:14;0.00;;;0.00;;
36001;SDS011;22070;50.922;5.430;2023-12-20T02:55:39;0.00;;;0.00;;
36001;SDS011;22070;50.922;5.430;2023-12-20T02:58:05;0.00;;;0.00;;
36001;SDS011;22070;50.922;5.430;2023-12-20T03:00:31;0.00;;;0.00;;
36001;SDS011;22070;50.922;5.430;2023-12-20T03:02:56;0.38;;;0.38;;
36001;SDS011;22070;50.922;5.430;2023-12-20T03:05:24;0.00;;;0.00;;
36001;SDS011;22070;50.922;5.430;2023-12-20T03:07:50;0.00;;;0.00;;
36001;SDS011;22070;50.922;5.430;2023-12-20T03:10:15;0.15;;;0.15;;
36001;SDS011;22070;50.922;5.430;2023-12-20T03:12:41;1.13;;;0.23;;
36001;SDS011;22070;50.922;5.430;2023-12-20T03:15:07;0.00;;;0.00;;
36001;SDS011;22070;50.922;5.430;2023-12-20T03:17:33;0.00;;;0.00;;
36001;SDS011;22070;50.922;5.430;2023-12-20T03:19:58;0.00;;;0.00;;
36001;SDS011;22070;50.922;5.430;2023-12-20T03:22:24;0.00;;;0.00;;
36001;SDS011;22070;50.922;5.430;2023-12-20T03:24:50;0.00;;;0.00;;
36001;SDS011;22070;50.922;5.430;2023-12-20T03:27:15;0.00;;;0.00;;
36001;SDS011;22070;50.922;5.430;2023-12-20T03:29:42;0.00;;;0.00;;
36001;SDS011;22070;50.922;5.430;2023-12-20T03:32:07;0.00;;;0.00;;
36001;SDS011;22070;50.922;5.430;2023-12-20T03:34:33;0.10;;;0.10;;
36001;SDS011;22070;50.922;5.430;2023-12-20T03:36:59;0.00;;;0.00;;
36001;SDS011;22070;50.922;5.430;2023-12-20T03:39:24;0.00;;;0.00;;
36001;SDS011;22070;50.922;5.430;2023-12-20T03:41:50;0.13;;;0.13;;
36001;SDS011;22070;50.922;5.430;2023-12-20T03:44:16;0.00;;;0.00;;
36001;SDS011;22070;50.922;5.430;2023-12-20T03:46:41;0.30;;;0.30;;
36001;SDS011;22070;50.922;5.430;2023-12-20T03:49:07;0.07;;;0.07;;
36001;SDS011;22070;50.922;5.430;2023-12-20T03:51:32;0.00;;;0.00;;
36001;SDS011;22070;50.922;5.430;2023-12-20T03:53:58;0.00;;;0.00;;
36001;SDS011;22070;50.922;5.430;2023-12-20T03:56:24;0.00;;;0.00;;
36001;SDS011;22070;50.922;5.430;2023-12-20T03:58:49;0.00;;;0.00;;
36001;SDS011;22070;50.922;5.430;2023-12-20T04:01:15;0.00;;;0.00;;
36001;SDS011;22070;50.922;5.430;2023-12-20T04:03:40;1.17;;;0.77;;
36001;SDS011;22070;50.922;5.430;2023-12-20T04:06:06;0.00;;;0.00;;
36001;SDS011;22070;50.922;5.430;2023-12-20T04:08:32;2.33;;;1.58;;
36001;SDS011;22070;50.922;5.430;2023-12-20T04:10:57;0.00;;;0.00;;
36001;SDS011;22070;50.922;5.430;2023-12-20T04:13:23;0.00;;;0.00;;
36001;SDS011;22070;50.922;5.430;2023-12-20T04:15:49;0.00;;;0.00;;
36001;SDS011;22070;50.922;5.430;2023-12-20T04:20:41;0.00;;;0.00;;
36001;SDS011;22070;50.922;5.430;2023-12-20T04:23:07;0.00;;;0.00;;
36001;SDS011;22070;50.922;5.430;2023-12-20T04:25:32;3.53;;;0.73;;
36001;SDS011;22070;50.922;5.430;2023-12-20T04:27:58;0.00;;;0.00;;
36001;SDS011;22070;50.922;5.430;2023-12-20T04:30:23;0.00;;;0.00;;
36001;SDS011;22070;50.922;5.430;2023-12-20T04:32:49;0.00;;;0.00;;
36001;SDS011;22070;50.922;5.430;2023-12-20T04:35:15;0.87;;;0.67;;
36001;SDS011;22070;50.922;5.430;2023-12-20T04:37:40;0.00;;;0.00;;
36001;SDS011;22070;50.922;5.430;2023-12-20T04:40:06;0.10;;;0.10;;
36001;SDS011;22070;50.922;5.430;2023-12-20T04:44:58;0.00;;;0.00;;
36001;SDS011;22070;50.922;5.430;2023-12-20T04:47:24;0.00;;;0.00;;
36001;SDS011;22070;50.922;5.430;2023-12-20T04:49:49;0.00;;;0.00;;
36001;SDS011;22070;50.922;5.430;2023-12-20T04:52:15;0.00;;;0.00;;
36001;SDS011;22070;50.922;5.430;2023-12-20T04:54:41;0.00;;;0.00;;
36001;SDS011;22070;50.922;5.430;2023-12-20T04:57:06;0.00;;;0.00;;
36001;SDS011;22070;50.922;5.430;2023-12-20T04:59:32;0.00;;;0.00;;
36001;SDS011;22070;50.922;5.430;2023-12-20T05:01:57;0.90;;;0.90;;
36001;SDS011;22070;50.922;5.430;2023-12-20T05:04:23;6.27;;;1.23;;
36001;SDS011;22070;50.922;5.430;2023-12-20T05:06:49;0.00;;;0.00;;
36001;SDS011;22070;50.922;5.430;2023-12-20T05:09:15;0.00;;;0.00;;
36001;SDS011;22070;50.922;5.430;2023-12-20T05:11:41;0.00;;;0.00;;
36001;SDS011;22070;50.922;5.430;2023-12-20T05:14:06;0.00;;;0.00;;
36001;SDS011;22070;50.922;5.430;2023-12-20T05:16:32;0.00;;;0.00;;
36001;SDS011;22070;50.922;5.430;2023-12-20T05:18:58;2.70;;;0.43;;
36001;SDS011;22070;50.922;5.430;2023-12-20T05:21:25;0.00;;;0.00;;
36001;SDS011;22070;50.922;5.430;2023-12-20T05:23:51;0.10;;;0.10;;
36001;SDS011;22070;50.922;5.430;2023-12-20T05:26:17;0.00;;;0.00;;
36001;SDS011;22070;50.922;5.430;2023-12-20T05:28:43;0.00;;;0.00;;
36001;SDS011;22070;50.922;5.430;2023-12-20T05:31:09;0.00;;;0.00;;
36001;SDS011;22070;50.922;5.430;2023-12-20T05:33:35;0.00;;;0.00;;
36001;SDS011;22070;50.922;5.430;2023-12-20T05:36:00;0.00;;;0.00;;
36001;SDS011;22070;50.922;5.430;2023-12-20T05:38:26;0.77;;;0.73;;
36001;SDS011;22070;50.922;5.430;2023-12-20T05:40:52;0.00;;;0.00;;
36001;SDS011;22070;50.922;5.430;2023-12-20T05:43:17;0.00;;;0.00;;
36001;SDS011;22070;50.922;5.430;2023-12-20T05:45:43;2.57;;;1.20;;
36001;SDS011;22070;50.922;5.430;2023-12-20T05:48:09;0.00;;;0.00;;
36001;SDS011;22070;50.922;5.430;2023-12-20T05:50:34;6.93;;;1.75;;
36001;SDS011;22070;50.922;5.430;2023-12-20T05:53:00;0.77;;;0.70;;
36001;SDS011;22070;50.922;5.430;2023-12-20T05:55:26;0.00;;;0.00;;
36001;SDS011;22070;50.922;5.430;2023-12-20T05:57:51;0.10;;;0.10;;
36001;SDS011;22070;50.922;5.430;2023-12-20T06:00:17;0.40;;;0.40;;
36001;SDS011;22070;50.922;5.430;2023-12-20T06:02:43;0.57;;;0.50;;
36001;SDS011;22070;50.922;5.430;2023-12-20T06:05:09;0.00;;;0.00;;
36001;SDS011;22070;50.922;5.430;2023-12-20T06:07:35;0.00;;;0.00;;
36001;SDS011;22070;50.922;5.430;2023-12-20T06:10:00;0.00;;;0.00;;
36001;SDS011;22070;50.922;5.430;2023-12-20T06:12:26;0.00;;;0.00;;
36001;SDS011;22070;50.922;5.430;2023-12-20T06:14:53;0.63;;;0.47;;
36001;SDS011;22070;50.922;5.430;2023-12-20T06:17:19;0.00;;;0.00;;
36001;SDS011;22070;50.922;5.430;2023-12-20T06:19:45;0.00;;;0.00;;
36001;SDS011;22070;50.922;5.430;2023-12-20T06:22:13;0.25;;;0.25;;
36001;SDS011;22070;50.922;5.430;2023-12-20T06:24:39;0.03;;;0.03;;
36001;SDS011;22070;50.922;5.430;2023-12-20T06:27:05;0.00;;;0.00;;
36001;SDS011;22070;50.922;5.430;2023-12-20T06:29:30;0.30;;;0.30;;
36001;SDS011;22070;50.922;5.430;2023-12-20T06:31:56;0.00;;;0.00;;
36001;SDS011;22070;50.922;5.430;2023-12-20T06:34:21;0.90;;;0.90;;
36001;SDS011;22070;50.922;5.430;2023-12-20T06:36:47;0.70;;;0.30;;
36001;SDS011;22070;50.922;5.430;2023-12-20T06:39:13;0.00;;;0.00;;
36001;SDS011;22070;50.922;5.430;2023-12-20T06:41:39;1.13;;;1.03;;
36001;SDS011;22070;50.922;5.430;2023-12-20T06:44:05;0.00;;;0.00;;
36001;SDS011;22070;50.922;5.430;2023-12-20T06:46:31;0.00;;;0.00;;
36001;SDS011;22070;50.922;5.430;2023-12-20T06:48:56;0.00;;;0.00;;
36001;SDS011;22070;50.922;5.430;2023-12-20T06:51:22;0.00;;;0.00;;
36001;SDS011;22070;50.922;5.430;2023-12-20T06:53:50;0.10;;;0.10;;
36001;SDS011;22070;50.922;5.430;2023-12-20T06:56:17;0.00;;;0.00;;
36001;SDS011;22070;50.922;5.430;2023-12-20T06:58:42;0.35;;;0.35;;
36001;SDS011;22070;50.922;5.430;2023-12-20T07:01:12;0.70;;;0.65;;
36001;SDS011;22070;50.922;5.430;2023-12-20T07:03:38;0.45;;;0.45;;
36001;SDS011;22070;50.922;5.430;2023-12-20T07:06:04;4.65;;;1.13;;
36001;SDS011;22070;50.922;5.430;2023-12-20T07:08:30;0.00;;;0.00;;
36001;SDS011;22070;50.922;5.430;2023-12-20T07:10:56;0.00;;;0.00;;
36001;SDS011;22070;50.922;5.430;2023-12-20T07:13:21;0.00;;;0.00;;
36001;SDS011;22070;50.922;5.430;2023-12-20T07:15:47;0.00;;;0.00;;
36001;SDS011;22070;50.922;5.430;2023-12-20T07:18:13;0.00;;;0.00;;
36001;SDS011;22070;50.922;5.430;2023-12-20T07:20:39;0.00;;;0.00;;
36001;SDS011;22070;50.922;5.430;2023-12-20T07:23:04;0.00;;;0.00;;
36001;SDS011;22070;50.922;5.430;2023-12-20T07:25:30;0.00;;;0.00;;
36001;SDS011;22070;50.922;5.430;2023-12-20T07:30:23;0.00;;;0.00;;
36001;SDS011;22070;50.922;5.430;2023-12-20T07:32:49;1.73;;;1.63;;
36001;SDS011;22070;50.922;5.430;2023-12-20T07:35:15;0.00;;;0.00;;
36001;SDS011;22070;50.922;5.430;2023-12-20T07:37:41;0.00;;;0.00;;
36001;SDS011;22070;50.922;5.430;2023-12-20T07:40:07;0.00;;;0.00;;
36001;SDS011;22070;50.922;5.430;2023-12-20T07:42:33;0.00;;;0.00;;
36001;SDS011;22070;50.922;5.430;2023-12-20T07:44:58;0.00;;;0.00;;
36001;SDS011;22070;50.922;5.430;2023-12-20T07:47:24;0.27;;;0.27;;
36001;SDS011;22070;50.922;5.430;2023-12-20T07:49:50;0.00;;;0.00;;
36001;SDS011;22070;50.922;5.430;2023-12-20T07:52:17;0.00;;;0.00;;
36001;SDS011;22070;50.922;5.430;2023-12-20T07:54:43;0.32;;;0.32;;
36001;SDS011;22070;50.922;5.430;2023-12-20T07:57:10;0.00;;;0.00;;
36001;SDS011;22070;50.922;5.430;2023-12-20T07:59:36;0.00;;;0.00;;
36001;SDS011;22070;50.922;5.430;2023-12-20T08:02:01;0.00;;;0.00;;
36001;SDS011;22070;50.922;5.430;2023-12-20T08:04:27;0.93;;;0.17;;
36001;SDS011;22070;50.922;5.430;2023-12-20T08:06:53;0.22;;;0.22;;
36001;SDS011;22070;50.922;5.430;2023-12-20T08:09:18;0.00;;;0.00;;
36001;SDS011;22070;50.922;5.430;2023-12-20T08:11:45;0.00;;;0.00;;
36001;SDS011;22070;50.922;5.430;2023-12-20T08:16:37;0.00;;;0.00;;
36001;SDS011;22070;50.922;5.430;2023-12-20T08:19:02;0.00;;;0.00;;
36001;SDS011;22070;50.922;5.430;2023-12-20T08:21:28;0.00;;;0.00;;
36001;SDS011;22070;50.922;5.430;2023-12-20T08:23:53;0.00;;;0.00;;
36001;SDS011;22070;50.922;5.430;2023-12-20T08:26:19;0.00;;;0.00;;
36001;SDS011;22070;50.922;5.430;2023-12-20T08:28:46;0.00;;;0.00;;
36001;SDS011;22070;50.922;5.430;2023-12-20T08:31:16;0.00;;;0.00;;
36001;SDS011;22070;50.922;5.430;2023-12-20T08:33:45;0.00;;;0.00;;
36001;SDS011;22070;50.922;5.430;2023-12-20T08:36:12;0.00;;;0.00;;
36001;SDS011;22070;50.922;5.430;2023-12-20T08:38:38;0.00;;;0.00;;
36001;SDS011;22070;50.922;5.430;2023-12-20T08:41:04;8.57;;;1.83;;
36001;SDS011;22070;50.922;5.430;2023-12-20T08:43:34;11.38;;;2.47;;
36001;SDS011;22070;50.922;5.430;2023-12-20T08:46:00;6.90;;;1.92;;
36001;SDS011;22070;50.922;5.430;2023-12-20T08:48:26;4.95;;;1.98;;
36001;SDS011;22070;50.922;5.430;2023-12-20T08:50:51;8.23;;;1.73;;
36001;SDS011;22070;50.922;5.430;2023-12-20T08:53:20;6.87;;;2.03;;
36001;SDS011;22070;50.922;5.430;2023-12-20T08:55:46;7.93;;;1.65;;
36001;SDS011;22070;50.922;5.430;2023-12-20T08:58:13;6.35;;;1.67;;
36001;SDS011;22070;50.922;5.430;2023-12-20T09:03:05;8.57;;;1.70;;
36001;SDS011;22070;50.922;5.430;2023-12-20T09:05:31;8.93;;;1.70;;
36001;SDS011;22070;50.922;5.430;2023-12-20T09:07:57;10.13;;;1.97;;
36001;SDS011;22070;50.922;5.430;2023-12-20T09:10:22;14.17;;;3.57;;
36001;SDS011;22070;50.922;5.430;2023-12-20T09:12:49;9.05;;;1.27;;
36001;SDS011;22070;50.922;5.430;2023-12-20T09:15:15;8.98;;;2.15;;
36001;SDS011;22070;50.922;5.430;2023-12-20T09:17:41;11.27;;;1.75;;
36001;SDS011;22070;50.922;5.430;2023-12-20T09:20:07;13.30;;;1.67;;
36001;SDS011;22070;50.922;5.430;2023-12-20T09:22:33;6.60;;;1.60;;
36001;SDS011;22070;50.922;5.430;2023-12-20T09:24:59;3.00;;;1.25;;
36001;SDS011;22070;50.922;5.430;2023-12-20T09:27:25;12.83;;;2.47;;
36001;SDS011;22070;50.922;5.430;2023-12-20T09:29:51;9.10;;;2.20;;
36001;SDS011;22070;50.922;5.430;2023-12-20T09:32:18;13.82;;;1.45;;
36001;SDS011;22070;50.922;5.430;2023-12-20T09:37:11;5.63;;;1.47;;
36001;SDS011;22070;50.922;5.430;2023-12-20T09:39:36;9.10;;;1.80;;
36001;SDS011;22070;50.922;5.430;2023-12-20T09:44:29;16.10;;;1.40;;
36001;SDS011;22070;50.922;5.430;2023-12-20T09:46:56;6.15;;;1.60;;
36001;SDS011;22070;50.922;5.430;2023-12-20T09:49:22;4.47;;;1.10;;
36001;SDS011;22070;50.922;5.430;2023-12-20T09:51:48;3.97;;;1.20;;
36001;SDS011;22070;50.922;5.430;2023-12-20T09:54:17;9.10;;;1.40;;
36001;SDS011;22070;50.922;5.430;2023-12-20T09:56:43;5.43;;;1.13;;
36001;SDS011;22070;50.922;5.430;2023-12-20T09:59:09;6.55;;;1.75;;
36001;SDS011;22070;50.922;5.430;2023-12-20T10:01:35;8.70;;;1.45;;
36001;SDS011;22070;50.922;5.430;2023-12-20T10:04:06;8.25;;;1.35;;
36001;SDS011;22070;50.922;5.430;2023-12-20T10:06:43;4.47;;;0.77;;
36001;SDS011;22070;50.922;5.430;2023-12-20T10:09:10;9.98;;;1.52;;
36001;SDS011;22070;50.922;5.430;2023-12-20T10:11:36;7.90;;;1.20;;
36001;SDS011;22070;50.922;5.430;2023-12-20T10:14:02;13.40;;;1.65;;
36001;SDS011;22070;50.922;5.430;2023-12-20T10:16:29;9.05;;;1.65;;
36001;SDS011;22070;50.922;5.430;2023-12-20T10:18:55;6.30;;;1.70;;
36001;SDS011;22070;50.922;5.430;2023-12-20T10:21:24;8.03;;;1.27;;
36001;SDS011;22070;50.922;5.430;2023-12-20T10:23:54;4.53;;;1.25;;
36001;SDS011;22070;50.922;5.430;2023-12-20T10:26:24;8.98;;;1.88;;
36001;SDS011;22070;50.922;5.430;2023-12-20T10:28:54;11.93;;;1.85;;
36001;SDS011;22070;50.922;5.430;2023-12-20T10:31:34;16.52;;;1.88;;
36001;SDS011;22070;50.922;5.430;2023-12-20T10:34:03;6.70;;;1.10;;
36001;SDS011;22070;50.922;5.430;2023-12-20T10:36:29;5.55;;;1.52;;
36001;SDS011;22070;50.922;5.430;2023-12-20T10:38:57;6.10;;;1.38;;
36001;SDS011;22070;50.922;5.430;2023-12-20T10:41:27;5.40;;;1.20;;
36001;SDS011;22070;50.922;5.430;2023-12-20T10:43:55;9.10;;;1.58;;
36001;SDS011;22070;50.922;5.430;2023-12-20T10:46:26;7.95;;;1.30;;
36001;SDS011;22070;50.922;5.430;2023-12-20T10:48:53;11.23;;;1.65;;
36001;SDS011;22070;50.922;5.430;2023-12-20T10:51:20;13.15;;;1.98;;
36001;SDS011;22070;50.922;5.430;2023-12-20T10:53:49;9.35;;;2.22;;
36001;SDS011;22070;50.922;5.430;2023-12-20T10:56:19;5.97;;;1.27;;
36001;SDS011;22070;50.922;5.430;2023-12-20T10:58:46;7.00;;;1.85;;
36001;SDS011;22070;50.922;5.430;2023-12-20T11:01:13;5.40;;;1.13;;
36001;SDS011;22070;50.922;5.430;2023-12-20T11:03:43;5.57;;;1.25;;
36001;SDS011;22070;50.922;5.430;2023-12-20T11:09:12;14.27;;;1.67;;
36001;SDS011;22070;50.922;5.430;2023-12-20T11:14:46;8.13;;;1.35;;
36001;SDS011;22070;50.922;5.430;2023-12-20T11:17:16;2.97;;;1.30;;
36001;SDS011;22070;50.922;5.430;2023-12-20T11:22:20;11.52;;;1.20;;
36001;SDS011;22070;50.922;5.430;2023-12-20T11:24:46;15.38;;;2.03;;
36001;SDS011;22070;50.922;5.430;2023-12-20T11:27:13;5.25;;;1.20;;
36001;SDS011;22070;50.922;5.430;2023-12-20T11:29:39;9.60;;;1.80;;
36001;SDS011;22070;50.922;5.430;2023-12-20T11:34:50;8.48;;;1.85;;
36001;SDS011;22070;50.922;5.430;2023-12-20T11:37:16;8.20;;;1.80;;
36001;SDS011;22070;50.922;5.430;2023-12-20T11:39:44;12.45;;;1.77;;
36001;SDS011;22070;50.922;5.430;2023-12-20T11:42:09;5.47;;;1.08;;
36001;SDS011;22070;50.922;5.430;2023-12-20T11:44:38;9.97;;;1.53;;
36001;SDS011;22070;50.922;5.430;2023-12-20T11:47:04;7.53;;;1.48;;
36001;SDS011;22070;50.922;5.430;2023-12-20T11:49:30;8.98;;;1.20;;
36001;SDS011;22070;50.922;5.430;2023-12-20T11:51:56;10.20;;;1.77;;
36001;SDS011;22070;50.922;5.430;2023-12-20T11:54:22;8.27;;;1.40;;
36001;SDS011;22070;50.922;5.430;2023-12-20T11:56:47;8.57;;;1.90;;
36001;SDS011;22070;50.922;5.430;2023-12-20T11:59:13;6.43;;;1.43;;
36001;SDS011;22070;50.922;5.430;2023-12-20T12:01:40;8.25;;;1.45;;
36001;SDS011;22070;50.922;5.430;2023-12-20T12:04:12;11.75;;;2.20;;
36001;SDS011;22070;50.922;5.430;2023-12-20T12:06:39;11.07;;;1.58;;
36001;SDS011;22070;50.922;5.430;2023-12-20T12:09:04;8.43;;;2.37;;
36001;SDS011;22070;50.922;5.430;2023-12-20T12:11:30;6.53;;;1.40;;
36001;SDS011;22070;50.922;5.430;2023-12-20T12:13:56;4.80;;;0.90;;
36001;SDS011;22070;50.922;5.430;2023-12-20T12:16:22;13.83;;;2.00;;
36001;SDS011;22070;50.922;5.430;2023-12-20T12:18:54;9.80;;;1.57;;
36001;SDS011;22070;50.922;5.430;2023-12-20T12:21:24;6.03;;;1.42;;
36001;SDS011;22070;50.922;5.430;2023-12-20T12:23:50;13.50;;;1.60;;
36001;SDS011;22070;50.922;5.430;2023-12-20T12:26:16;8.57;;;1.70;;
36001;SDS011;22070;50.922;5.430;2023-12-20T12:28:41;5.60;;;1.27;;
36001;SDS011;22070;50.922;5.430;2023-12-20T12:31:07;8.97;;;3.53;;
36001;SDS011;22070;50.922;5.430;2023-12-20T12:33:38;7.45;;;1.95;;
36001;SDS011;22070;50.922;5.430;2023-12-20T12:36:03;7.03;;;2.28;;
36001;SDS011;22070;50.922;5.430;2023-12-20T12:38:32;11.13;;;2.08;;
36001;SDS011;22070;50.922;5.430;2023-12-20T12:40:58;10.70;;;2.47;;
36001;SDS011;22070;50.922;5.430;2023-12-20T12:43:25;4.63;;;1.35;;
36001;SDS011;22070;50.922;5.430;2023-12-20T12:45:50;8.90;;;2.67;;
36001;SDS011;22070;50.922;5.430;2023-12-20T12:48:16;7.67;;;2.80;;
36001;SDS011;22070;50.922;5.430;2023-12-20T12:50:42;7.70;;;2.95;;
36001;SDS011;22070;50.922;5.430;2023-12-20T12:53:08;10.20;;;2.72;;
36001;SDS011;22070;50.922;5.430;2023-12-20T12:55:34;6.33;;;2.00;;
36001;SDS011;22070;50.922;5.430;2023-12-20T12:58:01;5.82;;;1.80;;
36001;SDS011;22070;50.922;5.430;2023-12-20T13:00:27;3.33;;;1.30;;
36001;SDS011;22070;50.922;5.430;2023-12-20T13:02:52;12.37;;;2.70;;
36001;SDS011;22070;50.922;5.430;2023-12-20T13:05:18;6.40;;;2.03;;
36001;SDS011;22070;50.922;5.430;2023-12-20T13:07:44;9.60;;;2.20;;
36001;SDS011;22070;50.922;5.430;2023-12-20T13:10:10;6.60;;;2.30;;
36001;SDS011;22070;50.922;5.430;2023-12-20T13:12:36;11.63;;;1.63;;
36001;SDS011;22070;50.922;5.430;2023-12-20T13:15:02;11.50;;;1.83;;
36001;SDS011;22070;50.922;5.430;2023-12-20T13:17:31;9.93;;;1.92;;
36001;SDS011;22070;50.922;5.430;2023-12-20T13:19:57;5.88;;;1.23;;
36001;SDS011;22070;50.922;5.430;2023-12-20T13:22:22;5.70;;;1.47;;
36001;SDS011;22070;50.922;5.430;2023-12-20T13:24:48;5.63;;;2.40;;
36001;SDS011;22070;50.922;5.430;2023-12-20T13:27:14;16.17;;;2.00;;
36001;SDS011;22070;50.922;5.430;2023-12-20T13:29:40;6.77;;;1.50;;
36001;SDS011;22070;50.922;5.430;2023-12-20T13:32:05;13.50;;;1.73;;
36001;SDS011;22070;50.922;5.430;2023-12-20T13:34:31;6.67;;;1.40;;
36001;SDS011;22070;50.922;5.430;2023-12-20T13:36:57;8.23;;;1.45;;
36001;SDS011;22070;50.922;5.430;2023-12-20T13:39:23;7.27;;;2.00;;
36001;SDS011;22070;50.922;5.430;2023-12-20T13:41:49;9.68;;;1.50;;
36001;SDS011;22070;50.922;5.430;2023-12-20T13:44:14;17.50;;;1.97;;
36001;SDS011;22070;50.922;5.430;2023-12-20T13:46:40;5.47;;;1.80;;
36001;SDS011;22070;50.922;5.430;2023-12-20T13:49:06;9.23;;;2.00;;
36001;SDS011;22070;50.922;5.430;2023-12-20T13:51:32;9.30;;;1.77;;
36001;SDS011;22070;50.922;5.430;2023-12-20T13:53:58;7.00;;;1.47;;
36001;SDS011;22070;50.922;5.430;2023-12-20T13:56:24;7.40;;;2.23;;
36001;SDS011;22070;50.922;5.430;2023-12-20T13:58:50;8.80;;;1.88;;
36001;SDS011;22070;50.922;5.430;2023-12-20T14:01:16;6.87;;;1.73;;
36001;SDS011;22070;50.922;5.430;2023-12-20T14:03:42;10.80;;;2.22;;
36001;SDS011;22070;50.922;5.430;2023-12-20T14:06:08;8.83;;;1.73;;
36001;SDS011;22070;50.922;5.430;2023-12-20T14:08:33;8.37;;;2.57;;
36001;SDS011;22070;50.922;5.430;2023-12-20T14:11:00;14.82;;;3.22;;
36001;SDS011;22070;50.922;5.430;2023-12-20T14:13:26;8.35;;;1.88;;
36001;SDS011;22070;50.922;5.430;2023-12-20T14:15:52;7.88;;;2.63;;
36001;SDS011;22070;50.922;5.430;2023-12-20T14:18:20;8.82;;;2.22;;
36001;SDS011;22070;50.922;5.430;2023-12-20T14:20:47;4.88;;;2.13;;
36001;SDS011;22070;50.922;5.430;2023-12-20T14:23:13;11.88;;;2.20;;
36001;SDS011;22070;50.922;5.430;2023-12-20T14:25:42;4.45;;;1.67;;
36001;SDS011;22070;50.922;5.430;2023-12-20T14:28:07;7.15;;;1.90;;
36001;SDS011;22070;50.922;5.430;2023-12-20T14:30:33;4.82;;;1.83;;
36001;SDS011;22070;50.922;5.430;2023-12-20T14:33:00;7.00;;;2.20;;
36001;SDS011;22070;50.922;5.430;2023-12-20T14:35:25;5.75;;;2.45;;
36001;SDS011;22070;50.922;5.430;2023-12-20T14:37:51;6.17;;;2.10;;
36001;SDS011;22070;50.922;5.430;2023-12-20T14:40:18;12.32;;;1.90;;
36001;SDS011;22070;50.922;5.430;2023-12-20T14:42:44;8.55;;;2.45;;
36001;SDS011;22070;50.922;5.430;2023-12-20T14:45:10;15.00;;;2.20;;
36001;SDS011;22070;50.922;5.430;2023-12-20T14:47:36;8.93;;;2.70;;
36001;SDS011;22070;50.922;5.430;2023-12-20T14:50:05;7.53;;;1.95;;
36001;SDS011;22070;50.922;5.430;2023-12-20T14:52:32;8.85;;;1.63;;
36001;SDS011;22070;50.922;5.430;2023-12-20T14:54:59;9.55;;;2.25;;
36001;SDS011;22070;50.922;5.430;2023-12-20T14:57:27;10.18;;;2.13;;
36001;SDS011;22070;50.922;5.430;2023-12-20T14:59:54;6.28;;;2.22;;
36001;SDS011;22070;50.922;5.430;2023-12-20T15:02:20;12.20;;;2.22;;
36001;SDS011;22070;50.922;5.430;2023-12-20T15:04:46;10.53;;;2.30;;
36001;SDS011;22070;50.922;5.430;2023-12-20T15:07:11;10.27;;;2.43;;